createdAt,value
2018-03-18T00:01:52.530Z,7.83
2018-03-18T00:04:21.594Z,5.43
2018-03-18T00:06:50.447Z,6.67
2018-03-18T00:09:19.291Z,7.43
2018-03-18T00:11:48.506Z,7.40
2018-03-18T00:14:17.343Z,4.50
2018-03-18T00:16:46.350Z,5.03
2018-03-18T00:19:15.216Z,7.33
2018-03-18T00:21:44.471Z,7.53
2018-03-18T00:24:13.528Z,6.20
2018-03-18T00:26:42.965Z,8.10
2018-03-18T00:29:11.814Z,6.80
2018-03-18T00:31:40.666Z,7.53
2018-03-18T00:34:09.536Z,7.20
2018-03-18T00:36:38.463Z,6.17
2018-03-18T00:39:07.388Z,7.83
2018-03-18T00:41:36.476Z,7.37
2018-03-18T00:44:06.112Z,7.20
2018-03-18T00:46:34.996Z,6.60
2018-03-18T00:49:03.898Z,7.33
2018-03-18T00:51:38.475Z,5.07
2018-03-18T00:54:07.406Z,4.80
2018-03-18T00:56:36.212Z,5.07
2018-03-18T00:59:05.237Z,6.30
2018-03-18T01:01:34.119Z,7.80
2018-03-18T01:04:02.973Z,4.33
2018-03-18T01:06:32.124Z,3.33
2018-03-18T01:09:00.977Z,5.33
2018-03-18T01:11:31.553Z,6.87
2018-03-18T01:14:01.389Z,3.97
2018-03-18T01:16:30.970Z,7.63
2018-03-18T01:18:59.830Z,8.20
2018-03-18T01:21:28.712Z,4.47
2018-03-18T01:23:57.532Z,5.60
2018-03-18T01:26:26.366Z,6.00
2018-03-18T01:28:55.310Z,5.93
2018-03-18T01:31:24.264Z,7.33
2018-03-18T01:33:53.154Z,6.27
2018-03-18T01:36:22.046Z,5.30
2018-03-18T01:38:50.905Z,7.73
2018-03-18T01:41:19.944Z,4.83
2018-03-18T01:43:49.802Z,5.50
2018-03-18T01:46:18.628Z,5.50
2018-03-18T01:48:47.467Z,7.67
2018-03-18T01:51:16.328Z,5.40
2018-03-18T01:53:45.766Z,8.03
2018-03-18T01:56:14.608Z,7.43
2018-03-18T01:58:43.467Z,6.10
2018-03-18T02:01:12.320Z,7.57
2018-03-18T02:03:41.169Z,6.70
2018-03-18T02:06:10.024Z,5.30
2018-03-18T02:08:38.888Z,6.50
2018-03-18T02:11:07.762Z,6.30
2018-03-18T02:13:36.632Z,7.53
2018-03-18T02:16:05.520Z,8.20
2018-03-18T02:18:34.362Z,8.40
2018-03-18T02:21:03.243Z,5.70
2018-03-18T02:23:32.084Z,7.30
2018-03-18T02:26:00.927Z,6.77
2018-03-18T02:28:31.162Z,5.50
2018-03-18T02:31:00.051Z,7.70
2018-03-18T02:33:29.726Z,7.90
2018-03-18T02:35:58.829Z,7.37
2018-03-18T02:38:27.663Z,8.03
2018-03-18T02:40:57.118Z,7.50
2018-03-18T02:43:25.968Z,6.97
2018-03-18T02:45:54.816Z,5.77
2018-03-18T02:48:23.683Z,4.93
2018-03-18T02:50:52.553Z,6.93
2018-03-18T02:53:21.425Z,7.47
2018-03-18T02:55:50.285Z,6.83
2018-03-18T02:58:19.159Z,7.40
2018-03-18T03:00:49.875Z,3.70
2018-03-18T03:03:18.713Z,6.13
2018-03-18T03:05:47.545Z,6.80
2018-03-18T03:08:16.430Z,6.73
2018-03-18T03:10:45.258Z,7.23
2018-03-18T03:13:14.103Z,7.77
2018-03-18T03:15:43.036Z,6.37
2018-03-18T03:18:13.154Z,5.47
2018-03-18T03:20:42.537Z,6.13
2018-03-18T03:23:11.436Z,7.67
2018-03-18T03:25:40.271Z,4.30
2018-03-18T03:28:09.107Z,5.27
2018-03-18T03:30:37.985Z,7.37
2018-03-18T03:33:06.863Z,7.77
2018-03-18T03:35:35.699Z,6.43
2018-03-18T03:38:05.331Z,6.60
2018-03-18T03:40:34.169Z,6.77
2018-03-18T03:43:03.079Z,5.30
2018-03-18T03:45:31.945Z,6.07
2018-03-18T03:48:00.789Z,7.00
2018-03-18T03:50:30.349Z,5.10
2018-03-18T03:52:59.232Z,7.43
2018-03-18T03:55:28.435Z,6.23
2018-03-18T03:57:57.287Z,4.90
2018-03-18T04:00:26.166Z,5.27
2018-03-18T04:02:55.051Z,6.33
2018-03-18T04:05:23.909Z,5.17
2018-03-18T04:07:53.768Z,5.63
2018-03-18T04:10:22.624Z,5.87
2018-03-18T04:12:52.251Z,6.33
2018-03-18T04:15:21.125Z,6.60
2018-03-18T04:17:49.988Z,6.83
2018-03-18T04:20:18.985Z,5.97
2018-03-18T04:22:47.879Z,5.50
2018-03-18T04:25:17.625Z,4.73
2018-03-18T04:27:46.467Z,6.77
2018-03-18T04:30:15.973Z,5.97
2018-03-18T04:32:44.823Z,6.00
2018-03-18T04:35:14.274Z,3.87
2018-03-18T04:37:43.137Z,6.20
2018-03-18T04:40:12.004Z,4.70
2018-03-18T04:42:41.099Z,4.77
2018-03-18T04:45:09.969Z,3.97
2018-03-18T04:47:38.848Z,6.07
2018-03-18T04:50:07.687Z,5.53
2018-03-18T04:52:36.594Z,5.37
2018-03-18T04:55:05.436Z,4.87
2018-03-18T04:57:34.837Z,5.40
2018-03-18T05:00:03.731Z,6.27
2018-03-18T05:02:32.611Z,6.37
2018-03-18T05:05:01.455Z,5.03
2018-03-18T05:07:30.319Z,7.13
2018-03-18T05:09:59.151Z,5.50
2018-03-18T05:12:28.010Z,4.43
2018-03-18T05:14:57.347Z,4.53
2018-03-18T05:17:26.225Z,4.87
2018-03-18T05:19:55.115Z,3.83
2018-03-18T05:22:23.975Z,6.87
2018-03-18T05:24:52.813Z,4.57
2018-03-18T05:27:21.657Z,6.53
2018-03-18T05:29:50.524Z,6.73
2018-03-18T05:32:19.353Z,6.63
2018-03-18T05:34:48.263Z,6.40
2018-03-18T05:37:17.139Z,7.23
2018-03-18T05:39:45.999Z,6.77
2018-03-18T05:42:14.884Z,7.17
2018-03-18T05:44:43.723Z,5.63
2018-03-18T05:47:13.055Z,6.47
2018-03-18T05:49:41.926Z,7.03
2018-03-18T05:52:11.661Z,7.00
2018-03-18T05:54:41.255Z,4.97
2018-03-18T05:57:10.483Z,4.23
2018-03-18T05:59:39.310Z,4.77
2018-03-18T06:02:08.153Z,4.40
2018-03-18T06:04:37.486Z,6.07
2018-03-18T06:07:06.323Z,7.30
2018-03-18T06:09:35.204Z,7.30
2018-03-18T06:12:04.095Z,6.07
2018-03-18T06:14:32.949Z,5.83
2018-03-18T06:17:01.807Z,6.07
2018-03-18T06:19:31.343Z,5.47
2018-03-18T06:22:00.195Z,6.23
2018-03-18T06:24:29.761Z,6.07
2018-03-18T06:26:58.601Z,4.87
2018-03-18T06:29:27.443Z,5.30
2018-03-18T06:31:56.304Z,6.27
2018-03-18T06:34:25.165Z,5.50
2018-03-18T06:36:54.027Z,6.63
2018-03-18T06:39:22.909Z,6.63
2018-03-18T06:41:51.749Z,6.17
2018-03-18T06:44:20.588Z,6.27
2018-03-18T06:46:50.585Z,6.40
2018-03-18T06:49:19.448Z,6.27
2018-03-18T06:51:48.388Z,6.60
2018-03-18T06:54:17.337Z,4.47
2018-03-18T06:56:46.179Z,6.43
2018-03-18T06:59:15.019Z,6.33
2018-03-18T07:01:43.970Z,5.53
2018-03-18T07:04:12.826Z,6.33
2018-03-18T07:06:41.668Z,6.60
2018-03-18T07:09:11.279Z,5.17
2018-03-18T07:11:40.157Z,6.00
2018-03-18T07:14:09.880Z,5.37
2018-03-18T07:16:38.719Z,6.40
2018-03-18T07:19:07.571Z,8.30
2018-03-18T07:21:36.442Z,4.80
2018-03-18T07:24:05.295Z,6.17
2018-03-18T07:26:34.149Z,8.80
2018-03-18T07:29:03.045Z,7.90
2018-03-18T07:31:31.911Z,4.73
2018-03-18T07:34:00.756Z,6.20
2018-03-18T07:36:32.220Z,6.10
2018-03-18T07:39:01.303Z,3.87
2018-03-18T07:41:30.406Z,6.67
2018-03-18T07:43:59.287Z,5.70
2018-03-18T07:46:28.248Z,4.40
2018-03-18T07:48:57.099Z,6.73
2018-03-18T07:51:25.979Z,6.20
2018-03-18T07:53:54.816Z,7.37
2018-03-18T07:56:23.679Z,6.33
2018-03-18T07:58:52.513Z,6.37
2018-03-18T08:01:21.577Z,4.47
2018-03-18T08:03:51.429Z,7.47
2018-03-18T08:06:20.277Z,6.90
2018-03-18T08:08:49.456Z,7.53
2018-03-18T08:11:18.391Z,6.47
2018-03-18T08:13:47.236Z,7.47
2018-03-18T08:16:16.127Z,7.77
2018-03-18T08:18:44.973Z,7.43
2018-03-18T08:21:13.819Z,6.63
2018-03-18T08:23:43.511Z,4.60
2018-03-18T08:26:12.675Z,6.57
2018-03-18T08:28:41.537Z,7.53
2018-03-18T08:31:11.407Z,7.07
2018-03-18T08:33:40.501Z,6.43
2018-03-18T08:36:09.973Z,6.27
2018-03-18T08:38:39.830Z,4.03
2018-03-18T08:41:09.370Z,6.27
2018-03-18T08:43:38.294Z,7.20
2018-03-18T08:46:07.733Z,7.50
2018-03-18T08:48:36.593Z,5.73
2018-03-18T08:51:05.759Z,6.03
2018-03-18T08:53:34.915Z,7.10
2018-03-18T08:56:04.079Z,6.67
2018-03-18T08:58:33.425Z,7.77
2018-03-18T09:01:02.304Z,6.53
2018-03-18T09:03:32.125Z,6.33
2018-03-18T09:06:01.907Z,4.83
2018-03-18T09:08:32.359Z,6.20
2018-03-18T09:11:02.478Z,6.27
2018-03-18T09:13:31.315Z,5.77
2018-03-18T09:16:00.165Z,7.30
2018-03-18T09:18:29.585Z,7.23
2018-03-18T09:20:58.419Z,7.40
2018-03-18T09:23:27.258Z,6.87
2018-03-18T09:25:56.226Z,7.60
2018-03-18T09:28:25.625Z,7.77
2018-03-18T09:30:54.473Z,7.83
2018-03-18T09:33:25.329Z,6.30
2018-03-18T09:35:56.054Z,7.43
2018-03-18T09:38:24.933Z,6.03
2018-03-18T09:40:53.793Z,7.43
2018-03-18T09:43:22.636Z,7.27
2018-03-18T09:45:51.775Z,6.97
2018-03-18T09:48:21.116Z,4.47
2018-03-18T09:50:50.260Z,7.10
2018-03-18T09:53:19.259Z,7.53
2018-03-18T09:55:49.042Z,7.23
2018-03-18T09:58:17.908Z,7.27
2018-03-18T10:00:47.610Z,5.97
2018-03-18T10:03:17.070Z,5.63
2018-03-18T10:05:45.952Z,6.93
2018-03-18T10:08:14.859Z,7.97
2018-03-18T10:10:44.461Z,7.47
2018-03-18T10:13:13.822Z,6.07
2018-03-18T10:15:43.602Z,7.13
2018-03-18T10:18:12.468Z,7.00
2018-03-18T10:20:41.506Z,5.70
2018-03-18T10:23:10.886Z,5.97
2018-03-18T10:25:39.747Z,5.37
2018-03-18T10:28:09.628Z,5.67
2018-03-18T10:30:38.496Z,5.03
2018-03-18T10:33:07.842Z,6.27
2018-03-18T10:35:36.692Z,5.90
2018-03-18T10:38:05.780Z,7.23
2018-03-18T10:40:34.627Z,7.13
2018-03-18T10:43:03.488Z,7.33
2018-03-18T10:45:32.328Z,6.93
2018-03-18T10:48:01.974Z,7.67
2018-03-18T10:50:32.282Z,6.97
2018-03-18T10:53:01.642Z,7.47
2018-03-18T10:55:31.762Z,4.07
2018-03-18T10:58:02.096Z,6.60
2018-03-18T11:00:36.741Z,6.83
2018-03-18T11:03:05.617Z,6.63
2018-03-18T11:05:34.542Z,6.30
2018-03-18T11:08:03.400Z,6.93
2018-03-18T11:10:33.082Z,6.17
2018-03-18T11:13:01.960Z,7.13
2018-03-18T11:15:31.092Z,7.10
2018-03-18T11:17:59.950Z,5.87
2018-03-18T11:20:31.404Z,5.87
2018-03-18T11:23:00.362Z,6.27
2018-03-18T11:25:30.010Z,6.90
2018-03-18T11:28:00.046Z,5.23
2018-03-18T11:30:30.110Z,5.73
2018-03-18T11:33:00.590Z,5.33
2018-03-18T11:35:34.486Z,6.67
2018-03-18T11:38:03.394Z,6.77
2018-03-18T11:40:32.336Z,5.13
2018-03-18T11:43:02.048Z,4.67
2018-03-18T11:45:31.651Z,4.27
2018-03-18T11:48:01.775Z,3.37
2018-03-18T11:50:31.716Z,5.40
2018-03-18T11:53:01.644Z,5.70
2018-03-18T11:55:30.704Z,5.87
2018-03-18T11:57:59.694Z,5.83
2018-03-18T12:00:28.900Z,5.73
2018-03-18T12:02:57.764Z,3.97
2018-03-18T12:05:26.638Z,5.53
2018-03-18T12:07:55.583Z,6.77
2018-03-18T12:10:24.470Z,5.70
2018-03-18T12:12:53.416Z,5.37
2018-03-18T12:15:22.744Z,5.63
2018-03-18T12:17:53.185Z,5.83
2018-03-18T12:20:22.328Z,5.60
2018-03-18T12:22:52.126Z,5.97
2018-03-18T12:25:20.968Z,6.53
2018-03-18T12:27:50.968Z,6.83
2018-03-18T12:30:20.914Z,5.60
2018-03-18T12:32:50.733Z,6.90
2018-03-18T12:35:19.887Z,4.13
2018-03-18T12:37:48.730Z,6.77
2018-03-18T12:40:23.388Z,4.53
2018-03-18T12:42:58.064Z,8.70
2018-03-18T12:45:27.018Z,8.37
2018-03-18T12:47:56.083Z,7.40
2018-03-18T12:50:24.956Z,6.77
2018-03-18T12:52:54.113Z,6.50
2018-03-18T12:55:23.018Z,5.90
2018-03-18T12:57:52.090Z,4.37
2018-03-18T13:00:22.667Z,6.00
2018-03-18T13:05:27.217Z,4.90
2018-03-18T13:07:56.057Z,5.93
2018-03-18T13:10:24.930Z,4.93
2018-03-18T13:12:53.867Z,6.37
2018-03-18T13:15:23.335Z,7.07
2018-03-18T13:17:52.781Z,6.27
2018-03-18T13:20:21.670Z,6.23
2018-03-18T13:22:51.086Z,6.63
2018-03-18T13:25:20.807Z,6.40
2018-03-18T13:27:50.714Z,4.83
2018-03-18T13:30:21.423Z,6.33
2018-03-18T13:32:51.556Z,5.87
2018-03-18T13:35:21.256Z,5.87
2018-03-18T13:37:51.826Z,4.57
2018-03-18T13:40:21.402Z,5.83
2018-03-18T13:42:51.694Z,5.17
2018-03-18T13:45:21.358Z,4.33
2018-03-18T13:47:52.062Z,6.00
2018-03-18T13:50:20.908Z,6.10
2018-03-18T13:52:53.376Z,4.57
2018-03-18T13:55:22.230Z,5.80
2018-03-18T13:57:52.674Z,6.80
2018-03-18T14:00:21.897Z,6.60
2018-03-18T14:02:51.679Z,7.40
2018-03-18T14:05:21.438Z,6.90
2018-03-18T14:07:51.494Z,6.47
2018-03-18T14:10:20.576Z,5.90
2018-03-18T14:12:51.522Z,5.53
2018-03-18T14:15:22.024Z,4.80
2018-03-18T14:17:50.969Z,5.83
2018-03-18T14:20:19.918Z,4.50
2018-03-18T14:22:49.377Z,4.13
2018-03-18T14:25:19.415Z,5.33
2018-03-18T14:27:49.117Z,4.53
2018-03-18T14:30:19.356Z,4.73
2018-03-18T14:32:48.573Z,5.47
2018-03-18T14:35:17.640Z,4.50
2018-03-18T14:37:47.324Z,4.57
2018-03-18T14:40:16.157Z,4.43
2018-03-18T14:42:50.127Z,5.57
2018-03-18T14:45:19.022Z,5.17
2018-03-18T14:47:48.405Z,5.07
2018-03-18T14:50:17.648Z,4.33
2018-03-18T14:52:46.741Z,5.00
2018-03-18T14:55:15.940Z,5.00
2018-03-18T14:57:44.800Z,5.70
2018-03-18T15:00:13.652Z,5.43
2018-03-18T15:02:42.485Z,4.97
2018-03-18T15:05:13.277Z,5.40
2018-03-18T15:07:42.224Z,4.60
2018-03-18T15:10:11.253Z,5.40
2018-03-18T15:12:40.130Z,4.93
2018-03-18T15:15:09.523Z,5.33
2018-03-18T15:17:38.381Z,5.43
2018-03-18T15:20:07.291Z,5.17
2018-03-18T15:22:36.142Z,4.47
2018-03-18T15:25:05.398Z,3.20
2018-03-18T15:27:34.319Z,4.77
2018-03-18T15:30:03.474Z,3.87
2018-03-18T15:32:32.385Z,4.90
2018-03-18T15:35:01.892Z,4.40
2018-03-18T15:37:31.139Z,4.30
2018-03-18T15:40:00.005Z,4.87
2018-03-18T15:42:29.763Z,5.30
2018-03-18T15:44:59.538Z,5.17
2018-03-18T15:47:29.170Z,4.17
2018-03-18T15:49:58.004Z,5.07
2018-03-18T15:52:27.655Z,4.07
2018-03-18T15:54:56.498Z,4.77
2018-03-18T15:57:25.339Z,5.40
2018-03-18T15:59:54.347Z,4.90
2018-03-18T16:02:23.326Z,4.30
2018-03-18T16:04:52.425Z,4.63
2018-03-18T16:07:21.325Z,3.53
2018-03-18T16:09:51.325Z,3.63
2018-03-18T16:12:20.346Z,4.43
2018-03-18T16:14:49.180Z,4.57
2018-03-18T16:17:18.104Z,4.83
2018-03-18T16:19:47.061Z,4.70
2018-03-18T16:22:15.975Z,3.93
2018-03-18T16:24:44.841Z,4.83
2018-03-18T16:27:13.679Z,5.20
2018-03-18T16:29:48.353Z,5.10
2018-03-18T16:32:17.269Z,4.60
2018-03-18T16:34:46.131Z,4.93
2018-03-18T16:37:15.025Z,4.93
2018-03-18T16:39:44.174Z,5.27
2018-03-18T16:42:15.635Z,3.80
2018-03-18T16:44:44.664Z,4.10
2018-03-18T16:47:14.681Z,3.93
2018-03-18T16:49:46.557Z,5.50
2018-03-18T16:52:16.463Z,5.70
2018-03-18T16:54:45.724Z,5.73
2018-03-18T16:57:14.562Z,4.97
2018-03-18T16:59:44.014Z,6.23
2018-03-18T17:02:12.913Z,5.17
2018-03-18T17:04:42.325Z,4.77
2018-03-18T17:07:11.202Z,6.03
2018-03-18T17:09:41.479Z,6.23
2018-03-18T17:12:10.333Z,4.83
2018-03-18T17:14:39.256Z,4.83
2018-03-18T17:17:08.366Z,2.80
2018-03-18T17:19:37.243Z,3.30
2018-03-18T17:22:06.221Z,4.83
2018-03-18T17:24:35.150Z,5.17
2018-03-18T17:27:04.048Z,3.77
2018-03-18T17:29:32.924Z,5.50
2018-03-18T17:32:02.784Z,5.10
2018-03-18T17:34:31.713Z,4.53
2018-03-18T17:37:00.627Z,5.63
2018-03-18T17:39:29.631Z,4.63
2018-03-18T17:41:58.534Z,4.93
2018-03-18T17:44:33.341Z,5.73
2018-03-18T17:47:08.169Z,4.40
2018-03-18T17:49:42.873Z,4.13
2018-03-18T17:52:18.794Z,2.73
2018-03-18T17:54:53.587Z,3.73
2018-03-18T17:57:22.522Z,3.77
2018-03-18T17:59:52.047Z,3.90
2018-03-18T18:02:20.900Z,4.50
2018-03-18T18:04:51.561Z,3.23
2018-03-18T18:07:20.412Z,4.43
2018-03-18T18:09:50.493Z,3.70
2018-03-18T18:12:19.429Z,4.80
2018-03-18T18:14:48.323Z,3.63
2018-03-18T18:17:17.619Z,3.87
2018-03-18T18:19:46.456Z,4.63
2018-03-18T18:22:15.297Z,4.57
2018-03-18T18:24:44.745Z,3.00
2018-03-18T18:27:14.405Z,4.13
2018-03-18T18:29:43.290Z,3.40
2018-03-18T18:32:12.643Z,3.97
2018-03-18T18:34:41.486Z,3.67
2018-03-18T18:37:10.882Z,3.47
2018-03-18T18:39:39.975Z,4.30
2018-03-18T18:42:09.832Z,4.03
2018-03-18T18:44:38.687Z,6.30
2018-03-18T18:47:07.871Z,3.87
2018-03-18T18:49:36.716Z,3.17
2018-03-18T18:52:05.579Z,4.07
2018-03-18T18:54:34.443Z,4.47
2018-03-18T18:57:04.096Z,4.30
2018-03-18T18:59:32.939Z,3.93
2018-03-18T19:02:01.845Z,3.57
2018-03-18T19:04:30.681Z,4.20
2018-03-18T19:06:59.586Z,3.80
2018-03-18T19:09:29.629Z,3.70
2018-03-18T19:11:58.635Z,3.43
2018-03-18T19:14:27.468Z,4.20
2018-03-18T19:16:56.539Z,3.33
2018-03-18T19:19:25.391Z,3.70
2018-03-18T19:21:54.386Z,2.70
2018-03-18T19:24:23.327Z,3.90
2018-03-18T19:26:52.171Z,3.83
2018-03-18T19:29:21.751Z,4.35
2018-03-18T19:31:50.603Z,3.90
2018-03-18T19:34:19.438Z,3.67
2018-03-18T19:36:48.951Z,3.70
2018-03-18T19:39:17.892Z,3.90
2018-03-18T19:41:46.715Z,3.70
2018-03-18T19:44:15.673Z,3.90
2018-03-18T19:46:44.505Z,3.63
2018-03-18T19:49:14.416Z,4.10
2018-03-18T19:51:43.325Z,3.93
2018-03-18T19:54:12.183Z,4.13
2018-03-18T19:56:41.905Z,3.80
2018-03-18T19:59:10.874Z,4.03
2018-03-18T20:01:39.768Z,3.37
2018-03-18T20:04:08.657Z,4.40
2018-03-18T20:06:38.329Z,4.33
2018-03-18T20:09:07.168Z,3.87
2018-03-18T20:11:36.143Z,10.20
2018-03-18T20:14:05.013Z,6.03
2018-03-18T20:16:33.849Z,2.97
2018-03-18T20:19:03.750Z,4.03
2018-03-18T20:21:33.610Z,4.33
2018-03-18T20:24:02.569Z,3.60
2018-03-18T20:26:32.758Z,2.93
2018-03-18T20:29:01.605Z,3.73
2018-03-18T20:31:31.535Z,3.03
2018-03-18T20:34:02.489Z,3.77
2018-03-18T20:36:32.310Z,3.90
2018-03-18T20:39:01.337Z,4.37
2018-03-18T20:41:30.272Z,3.60
2018-03-18T20:44:00.078Z,4.47
2018-03-18T20:46:29.996Z,4.30
2018-03-18T20:48:58.942Z,3.40
2018-03-18T20:51:27.796Z,3.53
2018-03-18T20:53:56.640Z,2.80
2018-03-18T20:56:25.507Z,3.27
2018-03-18T20:58:55.089Z,3.80
2018-03-18T21:01:23.965Z,3.60
2018-03-18T21:03:52.803Z,3.50
2018-03-18T21:06:21.691Z,3.50
2018-03-18T21:08:50.542Z,3.20
2018-03-18T21:11:19.411Z,4.03
2018-03-18T21:13:49.367Z,3.90
2018-03-18T21:16:18.236Z,4.10
2018-03-18T21:18:47.341Z,5.27
2018-03-18T21:21:17.186Z,9.37
2018-03-18T21:23:47.688Z,4.03
2018-03-18T21:26:17.957Z,2.40
2018-03-18T21:28:47.577Z,4.17
2018-03-18T21:31:17.117Z,4.70
2018-03-18T21:33:59.976Z,3.63
2018-03-18T21:36:30.107Z,4.20
2018-03-18T21:39:02.166Z,4.60
2018-03-18T21:41:32.080Z,3.53
2018-03-18T21:44:00.975Z,3.80
2018-03-18T21:46:29.823Z,4.13
2018-03-18T21:48:59.591Z,3.90
2018-03-18T21:51:28.792Z,3.13
2018-03-18T21:53:57.634Z,4.00
2018-03-18T21:56:26.503Z,4.00
2018-03-18T21:58:55.360Z,3.47
2018-03-18T22:01:24.208Z,3.80
2018-03-18T22:03:53.086Z,3.77
2018-03-18T22:06:21.928Z,4.10
2018-03-18T22:08:50.752Z,3.70
2018-03-18T22:11:20.078Z,4.30
2018-03-18T22:13:49.485Z,3.90
2018-03-18T22:16:18.328Z,3.87
2018-03-18T22:18:47.177Z,3.77
2018-03-18T22:21:17.044Z,3.87
2018-03-18T22:23:45.889Z,3.53
2018-03-18T22:26:15.220Z,4.13
2018-03-18T22:28:44.073Z,4.50
2018-03-18T22:33:59.099Z,3.80
2018-03-18T22:36:27.969Z,4.03
2018-03-18T22:38:56.814Z,4.57
2018-03-18T22:41:26.320Z,3.77
2018-03-18T22:43:56.101Z,3.60
2018-03-18T22:46:25.836Z,4.23
2018-03-18T22:48:54.696Z,3.90
2018-03-18T22:51:23.718Z,3.70
2018-03-18T22:53:52.584Z,4.33
2018-03-18T22:56:28.660Z,3.83
2018-03-18T22:58:57.502Z,4.27
2018-03-18T23:01:28.374Z,4.80
2018-03-18T23:03:57.232Z,4.90
2018-03-18T23:06:26.104Z,4.23
2018-03-18T23:08:57.330Z,4.20
2018-03-18T23:11:26.188Z,4.20
2018-03-18T23:13:55.086Z,4.20
2018-03-18T23:16:23.962Z,4.33
2018-03-18T23:18:52.874Z,4.30
2018-03-18T23:21:21.764Z,4.17
2018-03-18T23:23:50.638Z,4.53
2018-03-18T23:26:19.492Z,4.30
2018-03-18T23:28:48.368Z,3.97
2018-03-18T23:31:17.248Z,4.47
2018-03-18T23:33:46.124Z,4.03
2018-03-18T23:36:14.968Z,4.37
2018-03-18T23:38:43.833Z,4.00
2018-03-18T23:41:16.014Z,4.17
2018-03-18T23:43:44.843Z,4.70
2018-03-18T23:46:13.724Z,3.37
2018-03-18T23:48:42.588Z,3.83
2018-03-18T23:51:11.413Z,3.83
2018-03-18T23:53:40.273Z,3.80
2018-03-18T23:56:09.133Z,4.27
2018-03-18T23:58:37.991Z,3.73
